sensor_id;sensor_type;location;lat;lon;timestamp;pressure;altitude;pressure_sealevel;temperature;humidity
51289;BME280;37372;52.294;5.152;2024-02-16T00:02:19;100965.69;;;10.28;76.70
51289;BME280;37372;52.294;5.152;2024-02-16T00:04:45;100967.38;;;10.15;76.86
51289;BME280;37372;52.294;5.152;2024-02-16T00:07:11;100969.94;;;10.09;76.97
51289;BME280;37372;52.294;5.152;2024-02-16T00:09:36;100968.19;;;10.06;77.64
51289;BME280;37372;52.294;5.152;2024-02-16T00:12:01;100961.16;;;10.04;77.74
51289;BME280;37372;52.294;5.152;2024-02-16T00:14:27;100963.84;;;10.08;77.27
51289;BME280;37372;52.294;5.152;2024-02-16T00:16:53;100958.66;;;10.21;76.71
51289;BME280;37372;52.294;5.152;2024-02-16T00:19:20;100955.94;;;10.07;77.53
51289;BME280;37372;52.294;5.152;2024-02-16T00:21:46;100956.78;;;10.01;77.64
51289;BME280;37372;52.294;5.152;2024-02-16T00:24:11;100959.44;;;10.07;77.09
51289;BME280;37372;52.294;5.152;2024-02-16T00:26:37;100961.16;;;10.04;77.45
51289;BME280;37372;52.294;5.152;2024-02-16T00:29:06;100962.06;;;10.07;77.24
51289;BME280;37372;52.294;5.152;2024-02-16T00:31:31;100960.25;;;10.00;77.53
51289;BME280;37372;52.294;5.152;2024-02-16T00:33:57;100962.84;;;9.95;77.94
51289;BME280;37372;52.294;5.152;2024-02-16T00:36:23;100958.53;;;9.99;77.39
51289;BME280;37372;52.294;5.152;2024-02-16T00:38:49;100963.72;;;9.97;77.80
51289;BME280;37372;52.294;5.152;2024-02-16T00:41:22;100952.31;;;9.91;77.63
51289;BME280;37372;52.294;5.152;2024-02-16T00:43:52;100955.78;;;9.88;77.58
51289;BME280;37372;52.294;5.152;2024-02-16T00:46:17;100965.47;;;9.94;77.40
51289;BME280;37372;52.294;5.152;2024-02-16T00:48:52;100954.06;;;9.87;77.73
51289;BME280;37372;52.294;5.152;2024-02-16T00:51:21;100952.28;;;9.85;78.05
51289;BME280;37372;52.294;5.152;2024-02-16T00:53:49;100954.00;;;9.82;78.44
51289;BME280;37372;52.294;5.152;2024-02-16T00:56:14;100943.50;;;9.82;78.04
51289;BME280;37372;52.294;5.152;2024-02-16T00:58:43;100951.38;;;9.82;78.48
51289;BME280;37372;52.294;5.152;2024-02-16T01:01:08;100949.69;;;9.88;78.13
51289;BME280;37372;52.294;5.152;2024-02-16T01:03:36;100951.44;;;9.92;77.34
51289;BME280;37372;52.294;5.152;2024-02-16T01:06:03;100951.38;;;9.82;77.73
51289;BME280;37372;52.294;5.152;2024-02-16T01:08:29;100949.59;;;9.78;77.91
51289;BME280;37372;52.294;5.152;2024-02-16T01:10:55;100939.97;;;9.74;78.28
51289;BME280;37372;52.294;5.152;2024-02-16T01:13:21;100946.13;;;9.79;78.34
51289;BME280;37372;52.294;5.152;2024-02-16T01:15:53;100949.59;;;9.75;77.71
51289;BME280;37372;52.294;5.152;2024-02-16T01:18:20;100936.50;;;9.83;77.56
51289;BME280;37372;52.294;5.152;2024-02-16T01:20:48;100937.34;;;9.77;77.78
51289;BME280;37372;52.294;5.152;2024-02-16T01:23:14;100932.97;;;9.75;78.10
51289;BME280;37372;52.294;5.152;2024-02-16T01:25:40;100918.09;;;9.74;78.33
51289;BME280;37372;52.294;5.152;2024-02-16T01:28:05;100933.81;;;9.72;78.43
51289;BME280;37372;52.294;5.152;2024-02-16T01:30:31;100925.13;;;9.78;78.06
51289;BME280;37372;52.294;5.152;2024-02-16T01:32:56;100927.72;;;9.73;78.20
51289;BME280;37372;52.294;5.152;2024-02-16T01:35:22;100932.09;;;9.73;78.16
51289;BME280;37372;52.294;5.152;2024-02-16T01:37:48;100923.31;;;9.74;78.26
51289;BME280;37372;52.294;5.152;2024-02-16T01:40:14;100913.75;;;9.79;77.91
51289;BME280;37372;52.294;5.152;2024-02-16T01:42:43;100915.56;;;9.86;77.53
51289;BME280;37372;52.294;5.152;2024-02-16T01:45:10;100914.66;;;9.81;77.41
51289;BME280;37372;52.294;5.152;2024-02-16T01:47:37;100928.69;;;9.85;77.54
51289;BME280;37372;52.294;5.152;2024-02-16T01:50:05;100930.38;;;9.79;77.31
51289;BME280;37372;52.294;5.152;2024-02-16T01:52:31;100915.53;;;9.81;77.31
51289;BME280;37372;52.294;5.152;2024-02-16T01:55:00;100921.63;;;9.80;77.33
51289;BME280;37372;52.294;5.152;2024-02-16T01:57:28;100909.44;;;9.86;77.42
51289;BME280;37372;52.294;5.152;2024-02-16T01:59:53;100908.63;;;9.91;77.02
51289;BME280;37372;52.294;5.152;2024-02-16T02:02:18;100908.63;;;9.91;77.21
51289;BME280;37372;52.294;5.152;2024-02-16T02:04:46;100910.34;;;9.92;77.00
51289;BME280;37372;52.294;5.152;2024-02-16T02:07:15;100901.63;;;9.90;77.16
51289;BME280;37372;52.294;5.152;2024-02-16T02:09:41;100885.06;;;9.99;76.94
51289;BME280;37372;52.294;5.152;2024-02-16T02:12:12;100871.06;;;9.97;76.53
51289;BME280;37372;52.294;5.152;2024-02-16T02:14:42;100899.84;;;9.91;76.67
51289;BME280;37372;52.294;5.152;2024-02-16T02:17:08;100904.22;;;9.87;76.92
51289;BME280;37372;52.294;5.152;2024-02-16T02:19:34;100899.78;;;9.78;77.49
51289;BME280;37372;52.294;5.152;2024-02-16T02:22:00;100911.13;;;9.77;77.21
51289;BME280;37372;52.294;5.152;2024-02-16T02:24:27;100908.50;;;9.77;76.77
51289;BME280;37372;52.294;5.152;2024-02-16T02:26:52;100906.72;;;9.72;77.25
51289;BME280;37372;52.294;5.152;2024-02-16T02:29:17;100904.09;;;9.73;77.30
51289;BME280;37372;52.294;5.152;2024-02-16T02:31:43;100896.25;;;9.75;77.27
51289;BME280;37372;52.294;5.152;2024-02-16T02:34:09;100895.34;;;9.70;77.09
51289;BME280;37372;52.294;5.152;2024-02-16T02:36:38;100882.22;;;9.66;77.06
51289;BME280;37372;52.294;5.152;2024-02-16T02:39:03;100882.19;;;9.63;77.30
51289;BME280;37372;52.294;5.152;2024-02-16T02:41:29;100885.66;;;9.61;77.50
51289;BME280;37372;52.294;5.152;2024-02-16T02:43:54;100890.00;;;9.56;77.19
51289;BME280;37372;52.294;5.152;2024-02-16T02:46:20;100885.63;;;9.56;77.24
51289;BME280;37372;52.294;5.152;2024-02-16T02:48:45;100891.84;;;9.66;76.59
51289;BME280;37372;52.294;5.152;2024-02-16T02:51:11;100882.13;;;9.56;77.08
51289;BME280;37372;52.294;5.152;2024-02-16T02:53:39;100885.63;;;9.55;77.63
51289;BME280;37372;52.294;5.152;2024-02-16T02:56:04;100888.22;;;9.55;77.74
51289;BME280;37372;52.294;5.152;2024-02-16T02:58:30;100880.34;;;9.52;77.59
51289;BME280;37372;52.294;5.152;2024-02-16T03:00:55;100873.34;;;9.49;77.98
51289;BME280;37372;52.294;5.152;2024-02-16T03:03:22;100858.56;;;9.59;77.49
51289;BME280;37372;52.294;5.152;2024-02-16T03:06:06;100869.94;;;9.62;77.71
51289;BME280;37372;52.294;5.152;2024-02-16T03:08:32;100876.13;;;9.69;77.19
51289;BME280;37372;52.294;5.152;2024-02-16T03:10:58;100867.38;;;9.72;77.32
51289;BME280;37372;52.294;5.152;2024-02-16T03:13:26;100869.09;;;9.65;77.08
51289;BME280;37372;52.294;5.152;2024-02-16T03:15:52;100872.59;;;9.65;76.96
51289;BME280;37372;52.294;5.152;2024-02-16T03:18:18;100862.09;;;9.67;76.87
51289;BME280;37372;52.294;5.152;2024-02-16T03:20:44;100860.38;;;9.69;76.81
51289;BME280;37372;52.294;5.152;2024-02-16T03:23:13;100863.00;;;9.71;77.23
51289;BME280;37372;52.294;5.152;2024-02-16T03:25:38;100869.16;;;9.77;76.54
51289;BME280;37372;52.294;5.152;2024-02-16T03:28:04;100871.78;;;9.74;76.61
51289;BME280;37372;52.294;5.152;2024-02-16T03:30:29;100869.16;;;9.74;76.37
51289;BME280;37372;52.294;5.152;2024-02-16T03:32:54;100870.84;;;9.68;76.60
51289;BME280;37372;52.294;5.152;2024-02-16T03:35:20;100869.94;;;9.62;76.98
51289;BME280;37372;52.294;5.152;2024-02-16T03:37:49;100863.78;;;9.54;77.03
51289;BME280;37372;52.294;5.152;2024-02-16T03:40:16;100861.94;;;9.47;77.41
51289;BME280;37372;52.294;5.152;2024-02-16T03:42:42;100865.44;;;9.44;77.73
51289;BME280;37372;52.294;5.152;2024-02-16T03:45:08;100855.84;;;9.46;77.50
51289;BME280;37372;52.294;5.152;2024-02-16T03:47:34;100867.19;;;9.48;77.48
51289;BME280;37372;52.294;5.152;2024-02-16T03:50:00;100857.56;;;9.46;77.44
51289;BME280;37372;52.294;5.152;2024-02-16T03:52:26;100856.75;;;9.52;77.29
51289;BME280;37372;52.294;5.152;2024-02-16T03:54:51;100858.50;;;9.53;77.80
51289;BME280;37372;52.294;5.152;2024-02-16T03:57:18;100849.81;;;9.57;77.33
51289;BME280;37372;52.294;5.152;2024-02-16T03:59:47;100864.66;;;9.56;77.13
51289;BME280;37372;52.294;5.152;2024-02-16T04:02:12;100863.75;;;9.53;77.52
51289;BME280;37372;52.294;5.152;2024-02-16T04:04:41;100863.75;;;9.53;77.83
51289;BME280;37372;52.294;5.152;2024-02-16T04:07:07;100863.78;;;9.54;77.53
51289;BME280;37372;52.294;5.152;2024-02-16T04:09:33;100866.34;;;9.53;77.54
51289;BME280;37372;52.294;5.152;2024-02-16T04:12:00;100872.50;;;9.55;77.57
51289;BME280;37372;52.294;5.152;2024-02-16T04:14:26;100862.03;;;9.56;77.73
51289;BME280;37372;52.294;5.152;2024-02-16T04:16:51;100866.44;;;9.62;77.39
51289;BME280;37372;52.294;5.152;2024-02-16T04:19:17;100854.22;;;9.62;77.50
51289;BME280;37372;52.294;5.152;2024-02-16T04:21:43;100856.84;;;9.62;77.48
51289;BME280;37372;52.294;5.152;2024-02-16T04:24:08;100855.13;;;9.66;77.03
51289;BME280;37372;52.294;5.152;2024-02-16T04:26:34;100850.75;;;9.70;76.59
51289;BME280;37372;52.294;5.152;2024-02-16T04:29:08;100852.44;;;9.61;76.82
51289;BME280;37372;52.294;5.152;2024-02-16T04:31:34;100849.81;;;9.58;76.84
51289;BME280;37372;52.294;5.152;2024-02-16T04:34:00;100847.16;;;9.55;77.21
51289;BME280;37372;52.294;5.152;2024-02-16T04:36:27;100848.00;;;9.49;76.86
51289;BME280;37372;52.294;5.152;2024-02-16T04:38:52;100856.72;;;9.48;77.37
51289;BME280;37372;52.294;5.152;2024-02-16T04:41:20;100850.59;;;9.48;77.28
51289;BME280;37372;52.294;5.152;2024-02-16T04:43:46;100855.00;;;9.51;76.88
51289;BME280;37372;52.294;5.152;2024-02-16T04:46:15;100868.94;;;9.46;77.33
51289;BME280;37372;52.294;5.152;2024-02-16T04:48:41;100871.59;;;9.48;77.36
51289;BME280;37372;52.294;5.152;2024-02-16T04:51:06;100864.50;;;9.41;77.22
51289;BME280;37372;52.294;5.152;2024-02-16T04:53:34;100865.41;;;9.40;77.14
51289;BME280;37372;52.294;5.152;2024-02-16T04:56:00;100867.13;;;9.39;76.93
51289;BME280;37372;52.294;5.152;2024-02-16T04:58:30;100860.13;;;9.38;76.84
51289;BME280;37372;52.294;5.152;2024-02-16T05:00:55;100853.09;;;9.34;77.22
51289;BME280;37372;52.294;5.152;2024-02-16T05:03:20;100857.47;;;9.30;77.67
51289;BME280;37372;52.294;5.152;2024-02-16T05:05:47;100856.56;;;9.28;77.29
51289;BME280;37372;52.294;5.152;2024-02-16T05:08:15;100856.53;;;9.25;77.96
51289;BME280;37372;52.294;5.152;2024-02-16T05:10:40;100860.91;;;9.26;77.52
51289;BME280;37372;52.294;5.152;2024-02-16T05:13:06;100853.88;;;9.22;77.80
51289;BME280;37372;52.294;5.152;2024-02-16T05:15:32;100856.50;;;9.22;77.50
51289;BME280;37372;52.294;5.152;2024-02-16T05:17:58;100842.50;;;9.19;78.04
51289;BME280;37372;52.294;5.152;2024-02-16T05:20:27;100840.69;;;9.14;77.93
51289;BME280;37372;52.294;5.152;2024-02-16T05:22:53;100842.53;;;9.22;77.58
51289;BME280;37372;52.294;5.152;2024-02-16T05:25:19;100850.34;;;9.17;77.75
51289;BME280;37372;52.294;5.152;2024-02-16T05:27:46;100846.84;;;9.15;77.81
51289;BME280;37372;52.294;5.152;2024-02-16T05:30:14;100843.38;;;9.18;77.82
51289;BME280;37372;52.294;5.152;2024-02-16T05:32:41;100844.16;;;9.10;77.95
51289;BME280;37372;52.294;5.152;2024-02-16T05:35:08;100840.69;;;9.14;77.89
51289;BME280;37372;52.294;5.152;2024-02-16T05:37:47;100847.69;;;9.12;78.02
51289;BME280;37372;52.294;5.152;2024-02-16T05:40:15;100846.78;;;9.09;77.95
51289;BME280;37372;52.294;5.152;2024-02-16T05:42:53;100849.38;;;9.07;78.15
51289;BME280;37372;52.294;5.152;2024-02-16T05:45:20;100858.09;;;9.05;78.40
51289;BME280;37372;52.294;5.152;2024-02-16T05:47:50;100857.22;;;9.04;78.49
51289;BME280;37372;52.294;5.152;2024-02-16T05:50:16;100856.41;;;9.10;78.32
51289;BME280;37372;52.294;5.152;2024-02-16T05:52:43;100848.53;;;9.07;78.25
51289;BME280;37372;52.294;5.152;2024-02-16T05:55:10;100849.38;;;9.04;78.29
51289;BME280;37372;52.294;5.152;2024-02-16T05:57:37;100858.09;;;9.05;78.88
51289;BME280;37372;52.294;5.152;2024-02-16T06:00:04;100860.72;;;9.06;78.85
51289;BME280;37372;52.294;5.152;2024-02-16T06:02:31;100857.25;;;9.09;78.75
51289;BME280;37372;52.294;5.152;2024-02-16T06:04:56;100859.94;;;9.13;78.42
51289;BME280;37372;52.294;5.152;2024-02-16T06:07:22;100860.78;;;9.11;78.91
51289;BME280;37372;52.294;5.152;2024-02-16T06:09:48;100872.19;;;9.18;78.63
51289;BME280;37372;52.294;5.152;2024-02-16T06:12:13;100867.81;;;9.20;78.64
51289;BME280;37372;52.294;5.152;2024-02-16T06:14:41;100878.28;;;9.18;78.33
51289;BME280;37372;52.294;5.152;2024-02-16T06:17:07;100873.25;;;9.40;77.40
51289;BME280;37372;52.294;5.152;2024-02-16T06:19:34;100875.00;;;9.39;77.51
51289;BME280;37372;52.294;5.152;2024-02-16T06:22:02;100877.66;;;9.42;77.25
51289;BME280;37372;52.294;5.152;2024-02-16T06:24:28;100873.28;;;9.43;77.63
51289;BME280;37372;52.294;5.152;2024-02-16T06:26:53;100880.31;;;9.48;77.17
51289;BME280;37372;52.294;5.152;2024-02-16T06:29:20;100884.75;;;9.57;76.73
51289;BME280;37372;52.294;5.152;2024-02-16T06:31:47;100886.53;;;9.60;76.77
51289;BME280;37372;52.294;5.152;2024-02-16T06:34:14;100885.75;;;9.72;76.46
51289;BME280;37372;52.294;5.152;2024-02-16T06:36:40;100897.09;;;9.72;76.35
51289;BME280;37372;52.294;5.152;2024-02-16T06:39:06;100888.31;;;9.64;76.80
51289;BME280;37372;52.294;5.152;2024-02-16T06:41:31;100892.75;;;9.73;76.27
51289;BME280;37372;52.294;5.152;2024-02-16T06:43:57;100894.53;;;9.78;76.62
51289;BME280;37372;52.294;5.152;2024-02-16T06:46:22;100897.09;;;9.69;76.84
51289;BME280;37372;52.294;5.152;2024-02-16T06:48:50;100904.91;;;9.64;77.21
51289;BME280;37372;52.294;5.152;2024-02-16T06:51:15;100914.53;;;9.62;77.71
51289;BME280;37372;52.294;5.152;2024-02-16T06:53:40;100910.19;;;9.66;77.57
51289;BME280;37372;52.294;5.152;2024-02-16T06:56:07;100907.66;;;9.78;77.17
51289;BME280;37372;52.294;5.152;2024-02-16T06:58:33;100898.97;;;9.89;76.67
51289;BME280;37372;52.294;5.152;2024-02-16T07:01:03;100905.94;;;9.88;76.93
51289;BME280;37372;52.294;5.152;2024-02-16T07:03:29;100912.09;;;9.90;77.03
51289;BME280;37372;52.294;5.152;2024-02-16T07:05:54;100913.88;;;9.96;76.69
51289;BME280;37372;52.294;5.152;2024-02-16T07:08:20;100917.41;;;9.96;76.48
51289;BME280;37372;52.294;5.152;2024-02-16T07:10:46;100913.81;;;9.87;77.05
51289;BME280;37372;52.294;5.152;2024-02-16T07:13:13;100920.91;;;10.00;76.82
51289;BME280;37372;52.294;5.152;2024-02-16T07:15:38;100929.59;;;9.91;77.12
51289;BME280;37372;52.294;5.152;2024-02-16T07:18:05;100927.03;;;10.01;76.75
51289;BME280;37372;52.294;5.152;2024-02-16T07:20:30;100926.13;;;9.95;77.00
51289;BME280;37372;52.294;5.152;2024-02-16T07:22:56;100928.81;;;10.06;76.67
51289;BME280;37372;52.294;5.152;2024-02-16T07:25:21;100926.19;;;10.03;76.56
51289;BME280;37372;52.294;5.152;2024-02-16T07:27:47;100929.69;;;10.07;76.91
51289;BME280;37372;52.294;5.152;2024-02-16T07:30:12;100935.00;;;10.14;76.70
51289;BME280;37372;52.294;5.152;2024-02-16T07:32:38;100939.31;;;10.09;76.87
51289;BME280;37372;52.294;5.152;2024-02-16T07:35:04;100944.63;;;10.17;76.44
51289;BME280;37372;52.294;5.152;2024-02-16T07:37:30;100937.66;;;10.18;77.08
51289;BME280;37372;52.294;5.152;2024-02-16T07:39:55;100935.94;;;10.24;76.92
51289;BME280;37372;52.294;5.152;2024-02-16T07:42:21;100949.16;;;10.38;76.00
51289;BME280;37372;52.294;5.152;2024-02-16T07:44:47;100948.22;;;10.31;76.35
51289;BME280;37372;52.294;5.152;2024-02-16T07:47:13;100949.13;;;10.33;76.75
51289;BME280;37372;52.294;5.152;2024-02-16T07:49:39;100951.75;;;10.33;76.37
51289;BME280;37372;52.294;5.152;2024-02-16T07:52:08;100963.97;;;10.33;76.51
51289;BME280;37372;52.294;5.152;2024-02-16T07:54:34;100963.97;;;10.33;76.61
51289;BME280;37372;52.294;5.152;2024-02-16T07:57:09;100966.72;;;10.48;76.07
51289;BME280;37372;52.294;5.152;2024-02-16T07:59:35;100978.16;;;10.58;75.70
51289;BME280;37372;52.294;5.152;2024-02-16T08:02:01;100979.94;;;10.64;75.60
51289;BME280;37372;52.294;5.152;2024-02-16T08:04:28;100979.91;;;10.61;75.75
51289;BME280;37372;52.294;5.152;2024-02-16T08:06:56;100990.47;;;10.67;76.00
51289;BME280;37372;52.294;5.152;2024-02-16T08:09:22;100993.94;;;10.68;75.46
51289;BME280;37372;52.294;5.152;2024-02-16T08:11:53;100987.84;;;10.65;75.77
51289;BME280;37372;52.294;5.152;2024-02-16T08:14:18;100986.09;;;10.72;75.75
51289;BME280;37372;52.294;5.152;2024-02-16T08:16:43;100989.63;;;10.74;75.63
51289;BME280;37372;52.294;5.152;2024-02-16T08:19:10;100999.28;;;10.85;75.83
51289;BME280;37372;52.294;5.152;2024-02-16T08:21:38;100996.69;;;10.94;74.93
51289;BME280;37372;52.294;5.152;2024-02-16T08:24:04;101007.22;;;10.91;75.67
51289;BME280;37372;52.294;5.152;2024-02-16T08:26:29;101015.09;;;10.92;75.59
51289;BME280;37372;52.294;5.152;2024-02-16T08:28:55;101014.22;;;10.95;75.47
51289;BME280;37372;52.294;5.152;2024-02-16T08:31:21;101019.47;;;10.93;75.42
51289;BME280;37372;52.294;5.152;2024-02-16T08:33:47;101016.00;;;11.01;75.37
51289;BME280;37372;52.294;5.152;2024-02-16T08:36:13;101018.56;;;10.90;75.78
51289;BME280;37372;52.294;5.152;2024-02-16T08:38:43;101022.16;;;11.06;75.51
51289;BME280;37372;52.294;5.152;2024-02-16T08:41:08;101025.63;;;11.03;75.56
51289;BME280;37372;52.294;5.152;2024-02-16T08:43:34;101020.47;;;11.22;75.06
51289;BME280;37372;52.294;5.152;2024-02-16T08:45:59;101027.50;;;11.26;74.74
51289;BME280;37372;52.294;5.152;2024-02-16T08:48:25;101037.13;;;11.22;75.21
51289;BME280;37372;52.294;5.152;2024-02-16T08:50:50;101038.00;;;11.23;75.69
51289;BME280;37372;52.294;5.152;2024-02-16T08:53:36;101041.53;;;11.37;74.88
51289;BME280;37372;52.294;5.152;2024-02-16T08:56:01;101046.81;;;11.37;74.69
51289;BME280;37372;52.294;5.152;2024-02-16T08:58:30;101048.53;;;11.32;75.13
51289;BME280;37372;52.294;5.152;2024-02-16T09:00:56;101051.16;;;11.32;75.37
51289;BME280;37372;52.294;5.152;2024-02-16T09:03:24;101052.06;;;11.32;76.10
51289;BME280;37372;52.294;5.152;2024-02-16T09:05:49;101057.31;;;11.37;75.33
51289;BME280;37372;52.294;5.152;2024-02-16T09:08:15;101059.09;;;11.35;75.71
51289;BME280;37372;52.294;5.152;2024-02-16T09:10:43;101068.72;;;11.44;75.58
51289;BME280;37372;52.294;5.152;2024-02-16T09:13:08;101062.59;;;11.48;75.50
51289;BME280;37372;52.294;5.152;2024-02-16T09:15:34;101073.19;;;11.59;75.25
51289;BME280;37372;52.294;5.152;2024-02-16T09:18:00;101089.81;;;11.56;75.26
51289;BME280;37372;52.294;5.152;2024-02-16T09:20:25;101085.47;;;11.66;75.15
51289;BME280;37372;52.294;5.152;2024-02-16T09:22:51;101092.47;;;11.58;76.03
51289;BME280;37372;52.294;5.152;2024-02-16T09:25:16;101085.47;;;11.78;75.10
51289;BME280;37372;52.294;5.152;2024-02-16T09:27:42;101087.25;;;11.86;74.75
51289;BME280;37372;52.294;5.152;2024-02-16T09:30:11;101099.53;;;11.83;75.58
51289;BME280;37372;52.294;5.152;2024-02-16T09:32:43;101112.69;;;11.90;74.94
51289;BME280;37372;52.294;5.152;2024-02-16T09:35:08;101117.06;;;11.81;75.53
51289;BME280;37372;52.294;5.152;2024-02-16T09:37:35;101114.38;;;11.69;76.08
51289;BME280;37372;52.294;5.152;2024-02-16T09:40:03;101119.72;;;11.89;75.70
51289;BME280;37372;52.294;5.152;2024-02-16T09:42:29;101119.69;;;11.72;76.24
51289;BME280;37372;52.294;5.152;2024-02-16T09:44:54;101118.81;;;11.76;76.12
51289;BME280;37372;52.294;5.152;2024-02-16T09:47:22;101117.06;;;11.81;75.62
51289;BME280;37372;52.294;5.152;2024-02-16T09:49:48;101132.84;;;11.72;76.12
51289;BME280;37372;52.294;5.152;2024-02-16T09:52:14;101133.72;;;11.76;76.21
51289;BME280;37372;52.294;5.152;2024-02-16T09:54:40;101132.84;;;11.85;75.71
51289;BME280;37372;52.294;5.152;2024-02-16T09:57:05;101145.16;;;11.82;76.09
51289;BME280;37372;52.294;5.152;2024-02-16T09:59:31;101143.38;;;11.81;76.06
51289;BME280;37372;52.294;5.152;2024-02-16T10:02:04;101150.41;;;11.82;76.08
51289;BME280;37372;52.294;5.152;2024-02-16T10:04:32;101158.25;;;11.70;76.84
51289;BME280;37372;52.294;5.152;2024-02-16T10:06:58;101169.59;;;11.52;77.78
51289;BME280;37372;52.294;5.152;2024-02-16T10:09:28;101180.88;;;11.32;78.58
51289;BME280;37372;52.294;5.152;2024-02-16T10:11:57;101182.63;;;11.30;78.75
51289;BME280;37372;52.294;5.152;2024-02-16T10:14:23;101195.69;;;11.20;79.42
51289;BME280;37372;52.294;5.152;2024-02-16T10:17:04;101208.78;;;11.09;80.68
51289;BME280;37372;52.294;5.152;2024-02-16T10:19:30;101212.16;;;10.94;81.68
51289;BME280;37372;52.294;5.152;2024-02-16T10:22:07;101217.47;;;10.98;82.23
51289;BME280;37372;52.294;5.152;2024-02-16T10:24:33;101225.19;;;10.81;83.53
51289;BME280;37372;52.294;5.152;2024-02-16T10:26:59;101232.09;;;10.67;84.76
51289;BME280;37372;52.294;5.152;2024-02-16T10:29:27;101228.53;;;10.62;84.80
51289;BME280;37372;52.294;5.152;2024-02-16T10:31:52;101233.78;;;10.60;85.40
51289;BME280;37372;52.294;5.152;2024-02-16T10:34:19;101251.91;;;10.36;87.04
51289;BME280;37372;52.294;5.152;2024-02-16T10:36:48;101257.09;;;10.32;86.77
51289;BME280;37372;52.294;5.152;2024-02-16T10:39:14;101261.41;;;10.29;87.05
51289;BME280;37372;52.294;5.152;2024-02-16T10:41:41;101272.72;;;10.20;87.55
51289;BME280;37372;52.294;5.152;2024-02-16T10:44:07;101275.38;;;10.23;87.69
51289;BME280;37372;52.294;5.152;2024-02-16T10:46:33;101297.19;;;10.21;87.84
51289;BME280;37372;52.294;5.152;2024-02-16T10:49:01;101296.28;;;10.19;87.63
51289;BME280;37372;52.294;5.152;2024-02-16T10:51:37;101305.91;;;10.16;87.58
51289;BME280;37372;52.294;5.152;2024-02-16T10:54:04;101297.09;;;10.10;87.92
51289;BME280;37372;52.294;5.152;2024-02-16T10:56:37;101307.69;;;10.19;87.56
51289;BME280;37372;52.294;5.152;2024-02-16T10:59:08;101301.44;;;10.09;88.04
51289;BME280;37372;52.294;5.152;2024-02-16T11:01:38;101305.06;;;10.18;88.18
51289;BME280;37372;52.294;5.152;2024-02-16T11:04:06;101299.84;;;10.24;88.14
51289;BME280;37372;52.294;5.152;2024-02-16T11:06:54;101299.06;;;10.29;87.23
51289;BME280;37372;52.294;5.152;2024-02-16T11:09:28;101306.03;;;10.27;87.44
51289;BME280;37372;52.294;5.152;2024-02-16T11:11:54;101306.00;;;10.24;87.63
51289;BME280;37372;52.294;5.152;2024-02-16T11:14:22;101299.88;;;10.25;88.10
51289;BME280;37372;52.294;5.152;2024-02-16T11:16:54;101323.53;;;10.28;87.95
51289;BME280;37372;52.294;5.152;2024-02-16T11:19:22;101327.16;;;10.37;87.00
51289;BME280;37372;52.294;5.152;2024-02-16T11:22:03;101334.91;;;10.27;87.37
51289;BME280;37372;52.294;5.152;2024-02-16T11:24:33;101329.53;;;10.16;87.79
51289;BME280;37372;52.294;5.152;2024-02-16T11:27:01;101324.28;;;10.16;88.19
51289;BME280;37372;52.294;5.152;2024-02-16T11:29:31;101320.00;;;10.25;87.79
51289;BME280;37372;52.294;5.152;2024-02-16T11:31:58;101315.59;;;10.24;88.27
51289;BME280;37372;52.294;5.152;2024-02-16T11:34:24;101326.06;;;10.21;88.27
51289;BME280;37372;52.294;5.152;2024-02-16T11:36:54;101332.25;;;10.24;87.29
51289;BME280;37372;52.294;5.152;2024-02-16T11:39:21;101347.91;;;10.18;87.70
51289;BME280;37372;52.294;5.152;2024-02-16T11:41:47;101350.41;;;10.07;88.55
51289;BME280;37372;52.294;5.152;2024-02-16T11:44:22;101363.53;;;10.09;88.55
51289;BME280;37372;52.294;5.152;2024-02-16T11:46:53;101375.72;;;10.07;88.73
51289;BME280;37372;52.294;5.152;2024-02-16T11:49:19;101390.63;;;10.06;88.42
51289;BME280;37372;52.294;5.152;2024-02-16T11:51:44;101394.06;;;10.02;88.52
51289;BME280;37372;52.294;5.152;2024-02-16T11:54:10;101400.00;;;9.90;88.76
51289;BME280;37372;52.294;5.152;2024-02-16T11:56:37;101394.94;;;10.03;88.27
51289;BME280;37372;52.294;5.152;2024-02-16T11:59:06;101409.94;;;10.11;87.46
51289;BME280;37372;52.294;5.152;2024-02-16T12:01:32;101411.59;;;10.06;88.01
51289;BME280;37372;52.294;5.152;2024-02-16T12:03:59;101423.88;;;10.09;87.75
51289;BME280;37372;52.294;5.152;2024-02-16T12:06:25;101412.44;;;10.04;88.15
51289;BME280;37372;52.294;5.152;2024-02-16T12:08:50;101413.13;;;9.92;88.60
51289;BME280;37372;52.294;5.152;2024-02-16T12:11:18;101432.38;;;9.92;88.74
51289;BME280;37372;52.294;5.152;2024-02-16T12:13:45;101433.28;;;9.94;88.17
51289;BME280;37372;52.294;5.152;2024-02-16T12:16:10;101445.69;;;10.03;88.48
51289;BME280;37372;52.294;5.152;2024-02-16T12:18:36;101447.53;;;10.12;88.45
51289;BME280;37372;52.294;5.152;2024-02-16T12:21:06;101442.25;;;10.09;87.97
51289;BME280;37372;52.294;5.152;2024-02-16T12:23:32;101446.94;;;10.30;88.46
51289;BME280;37372;52.294;5.152;2024-02-16T12:26:02;101439.97;;;10.32;88.38
51289;BME280;37372;52.294;5.152;2024-02-16T12:28:30;101433.03;;;10.37;87.72
51289;BME280;37372;52.294;5.152;2024-02-16T12:30:58;101448.97;;;10.48;87.53
51289;BME280;37372;52.294;5.152;2024-02-16T12:33:23;101447.44;;;10.67;87.13
51289;BME280;37372;52.294;5.152;2024-02-16T12:35:50;101451.09;;;10.78;85.89
51289;BME280;37372;52.294;5.152;2024-02-16T12:38:16;101460.66;;;10.73;86.40
51289;BME280;37372;52.294;5.152;2024-02-16T12:40:43;101457.34;;;10.88;86.07
51289;BME280;37372;52.294;5.152;2024-02-16T12:43:09;101467.03;;;10.94;85.69
51289;BME280;37372;52.294;5.152;2024-02-16T12:45:37;101469.81;;;11.06;86.02
51289;BME280;37372;52.294;5.152;2024-02-16T12:48:05;101479.41;;;11.03;85.34
51289;BME280;37372;52.294;5.152;2024-02-16T12:50:31;101482.03;;;11.03;85.25
51289;BME280;37372;52.294;5.152;2024-02-16T12:52:57;101486.56;;;11.14;84.89
51289;BME280;37372;52.294;5.152;2024-02-16T12:55:29;101486.34;;;10.97;84.87